Time;durP1;ratioP1;P1;durP2;ratioP2;P2;SDS_P1;SDS_P2;PMS_P1;PMS_P2;Temp;Humidity;BMP_temperature;BMP_pressure;BME280_temperature;BME280_humidity;BME280_pressure;Samples;Min_cycle;Max_cycle;Signal;HPM_P1;HPM_P2
2023/07/03 00:00:28;;;;;;;3.15;0.98;;;;;;;17.55;67.74;101009.56;4993048;28;97518;-27
2023/07/03 00:02:53;;;;;;;7.47;1.27;;;;;;;17.52;68.21;101021.66;4992964;28;96614;-27
2023/07/03 00:05:20;;;;;;;7.50;1.42;;;;;;;17.52;69.52;101009.81;4992766;28;96658;-27
2023/07/03 00:07:48;;;;;;;5.43;1.17;;;;;;;17.44;68.45;101005.03;4990688;28;101176;-27
2023/07/03 00:10:14;;;;;;;9.30;1.67;;;;;;;17.43;70.01;100994.22;4991147;28;101469;-26
2023/07/03 00:12:40;;;;;;;11.07;2.00;;;;;;;17.43;70.00;101003.31;4991221;28;96501;-27
2023/07/03 00:15:06;;;;;;;5.88;1.52;;;;;;;17.33;69.73;101003.25;4992430;28;96831;-26
2023/07/03 00:17:31;;;;;;;8.50;1.70;;;;;;;17.36;69.91;100997.50;4992392;28;99577;-27
2023/07/03 00:19:57;;;;;;;6.60;1.70;;;;;;;17.31;70.13;100999.78;4992497;28;97868;-26
2023/07/03 00:22:23;;;;;;;6.00;1.27;;;;;;;17.32;70.46;101001.50;4992213;28;98037;-28
2023/07/03 00:24:48;;;;;;;4.70;1.50;;;;;;;17.27;70.44;101014.72;4992918;28;96865;-26
2023/07/03 00:27:14;;;;;;;7.93;1.75;;;;;;;17.27;70.25;101003.78;4992362;28;97934;-26
2023/07/03 00:29:39;;;;;;;12.23;2.03;;;;;;;17.29;69.58;100998.19;4992119;28;99269;-26
2023/07/03 00:32:06;;;;;;;6.82;1.88;;;;;;;17.31;69.57;101005.25;4991646;28;96579;-27
2023/07/03 00:34:32;;;;;;;4.25;1.10;;;;;;;17.31;69.82;101005.25;4990827;28;96965;-27
2023/07/03 00:36:57;;;;;;;6.70;1.58;;;;;;;17.30;70.38;101006.22;4991920;28;98204;-27
2023/07/03 00:39:23;;;;;;;4.65;1.38;;;;;;;17.26;70.47;100999.31;4992074;28;97114;-26
2023/07/03 00:41:50;;;;;;;8.50;1.63;;;;;;;17.25;70.65;100994.81;4990927;28;96732;-27
2023/07/03 00:44:17;;;;;;;9.35;2.00;;;;;;;17.26;70.59;101003.94;4991867;28;107104;-27
2023/07/03 00:46:46;;;;;;;5.13;1.40;;;;;;;17.22;69.93;100995.09;4990650;28;101177;-27
2023/07/03 00:49:12;;;;;;;8.93;1.42;;;;;;;17.31;69.77;101010.72;4990847;28;101331;-27
2023/07/03 00:51:40;;;;;;;9.45;1.45;;;;;;;17.26;70.15;100998.44;4992365;28;96674;-26
2023/07/03 00:54:05;;;;;;;6.97;1.40;;;;;;;17.20;70.98;100991.63;4990657;28;96707;-27
2023/07/03 00:56:31;;;;;;;7.28;1.73;;;;;;;17.28;70.01;100999.16;4991735;28;98111;-27
2023/07/03 00:58:56;;;;;;;10.07;1.90;;;;;;;17.31;70.60;100996.19;4991563;28;110533;-27
2023/07/03 01:01:48;;;;;;;5.53;1.42;;;;;;;17.34;70.88;101004.97;4991927;28;96601;-26
2023/07/03 01:04:17;;;;;;;5.00;0.95;;;;;;;17.33;70.70;100997.78;4990758;28;96698;-27
2023/07/03 01:07:06;;;;;;;8.55;1.70;;;;;;;17.39;71.02;100999.09;4990400;28;101115;-26
2023/07/03 01:09:37;;;;;;;6.82;1.50;;;;;;;17.38;71.05;100997.38;4990862;28;100753;-26
2023/07/03 01:12:05;;;;;;;8.15;1.30;;;;;;;17.38;70.74;101002.84;4994156;28;96522;-28
2023/07/03 01:14:31;;;;;;;8.35;1.88;;;;;;;17.31;70.97;100994.28;4995796;28;96700;-26
2023/07/03 01:16:58;;;;;;;6.20;1.33;;;;;;;17.34;71.65;100990.41;4995488;28;97648;-26
2023/07/03 01:19:31;;;;;;;7.35;2.15;;;;;;;17.43;70.27;101003.31;4993801;28;101197;-26
2023/07/03 01:22:22;;;;;;;6.38;1.63;;;;;;;17.40;71.01;100984.41;4994816;28;96764;-27
2023/07/03 01:24:50;;;;;;;10.68;1.75;;;;;;;17.39;71.05;100994.47;4993725;28;97424;-28
2023/07/03 01:27:20;;;;;;;7.93;1.58;;;;;;;17.30;71.85;100997.16;4995053;28;97974;-27
2023/07/03 01:29:50;;;;;;;8.63;1.40;;;;;;;17.30;71.05;100991.69;4994862;28;99471;-26
2023/07/03 01:32:20;;;;;;;7.35;1.55;;;;;;;17.29;71.12;100990.81;4995153;28;96633;-27
2023/07/03 01:34:47;;;;;;;3.17;1.30;;;;;;;17.32;71.45;100998.75;4993425;28;96862;-27
2023/07/03 01:37:14;;;;;;;10.98;2.30;;;;;;;17.35;71.66;100995.78;4994335;28;97999;-27
2023/07/03 01:39:43;;;;;;;8.48;1.80;;;;;;;17.31;71.10;100988.81;4993685;28;101475;-26
2023/07/03 01:42:10;;;;;;;6.65;1.52;;;;;;;17.32;71.97;100979.59;4993621;28;96651;-26
2023/07/03 01:44:36;;;;;;;5.72;1.65;;;;;;;17.33;71.44;100978.59;4993554;28;96875;-28
2023/07/03 01:47:10;;;;;;;9.93;1.95;;;;;;;17.36;71.83;100983.81;4976451;28;101159;-27
2023/07/03 01:49:35;;;;;;;9.43;2.33;;;;;;;17.43;71.31;100988.75;4994583;28;97496;-27
2023/07/03 01:52:22;;;;;;;9.52;1.65;;;;;;;17.44;71.25;100987.72;4995224;28;96496;-27
2023/07/03 01:55:09;;;;;;;7.53;1.48;;;;;;;17.45;71.14;100986.72;4994668;28;96664;-27
2023/07/03 01:58:08;;;;;;;7.65;1.85;;;;;;;17.45;71.84;100986.72;4994875;28;98001;-26
2023/07/03 02:00:48;;;;;;;9.57;1.80;;;;;;;17.37;71.34;100980.03;4984594;28;100829;-27
2023/07/03 02:03:23;;;;;;;12.75;1.80;;;;;;;17.44;71.06;100979.53;4993365;28;96533;-27
2023/07/03 02:05:51;;;;;;;3.40;1.38;;;;;;;17.37;71.62;100970.97;4993653;28;96764;-26
2023/07/03 02:08:19;;;;;;;4.20;1.30;;;;;;;17.34;69.95;100980.31;4992954;28;101291;-27
2023/07/03 02:10:45;;;;;;;7.38;1.45;;;;;;;17.33;69.75;100975.88;4992826;28;101057;-26
2023/07/03 02:13:10;;;;;;;10.13;1.70;;;;;;;17.32;69.38;100979.59;4992730;28;97105;-26
2023/07/03 02:15:36;;;;;;;8.77;1.30;;;;;;;17.36;69.27;100977.47;4994184;28;96839;-28
2023/07/03 02:18:01;;;;;;;4.88;0.98;;;;;;;17.37;68.34;100977.31;4994197;28;99973;-27
2023/07/03 02:20:28;;;;;;;7.20;1.40;;;;;;;17.34;67.47;100960.31;4994289;28;97842;-26
2023/07/03 02:22:53;;;;;;;3.53;1.45;;;;;;;17.37;67.29;100969.09;4993140;28;96505;-27
2023/07/03 02:25:19;;;;;;;3.00;0.90;;;;;;;17.41;66.75;100978.78;4992895;28;96968;-27
2023/07/03 02:27:44;;;;;;;4.40;1.27;;;;;;;17.40;66.42;100970.72;4994243;28;97584;-27
2023/07/03 02:30:11;;;;;;;3.60;0.77;;;;;;;17.40;65.33;100970.72;4994518;28;97847;-27
2023/07/03 02:32:38;;;;;;;8.55;1.30;;;;;;;17.44;65.96;100977.63;4994150;28;96598;-26
2023/07/03 02:35:04;;;;;;;4.57;0.93;;;;;;;17.42;65.54;100971.44;4992712;28;96945;-27
2023/07/03 02:37:30;;;;;;;4.32;1.33;;;;;;;17.39;62.99;100969.84;4991405;28;101507;-27
2023/07/03 02:39:55;;;;;;;2.55;1.02;;;;;;;17.37;63.35;100973.72;4992454;28;100989;-27
2023/07/03 02:42:21;;;;;;;6.00;1.20;;;;;;;17.34;63.76;100974.00;4994393;28;97015;-27
2023/07/03 02:44:46;;;;;;;4.57;1.05;;;;;;;17.35;62.77;100979.34;4994153;28;96830;-27
2023/07/03 02:47:11;;;;;;;2.75;1.15;;;;;;;17.32;61.50;100974.13;4993752;28;99348;-27
2023/07/03 02:49:37;;;;;;;2.05;0.77;;;;;;;17.29;60.32;100968.06;4993779;28;97755;-28
2023/07/03 02:52:02;;;;;;;2.20;0.73;;;;;;;17.34;61.47;100972.13;4993840;28;96607;-27
2023/07/03 02:54:28;;;;;;;2.45;0.73;;;;;;;17.32;59.31;100973.25;4994140;28;96788;-26
2023/07/03 02:56:53;;;;;;;2.00;0.55;;;;;;;17.28;59.45;100975.41;4993856;28;97706;-27
2023/07/03 02:59:19;;;;;;;4.07;0.90;;;;;;;17.25;59.21;100970.19;4993655;28;99203;-27
2023/07/03 03:01:44;;;;;;;3.60;0.60;;;;;;;17.27;58.53;100962.72;4993255;28;96481;-26
2023/07/03 03:04:10;;;;;;;1.75;0.80;;;;;;;17.22;58.35;100962.25;4993858;28;96530;-27
2023/07/03 03:06:36;;;;;;;3.65;0.75;;;;;;;17.24;58.00;100975.81;4993591;28;98035;-27
2023/07/03 03:09:02;;;;;;;0.50;0.43;;;;;;;17.20;57.62;100969.72;4993373;28;99258;-27
2023/07/03 03:11:27;;;;;;;3.47;0.60;;;;;;;17.20;58.58;100973.31;4992348;28;96599;-27
2023/07/03 03:13:52;;;;;;;6.40;0.70;;;;;;;17.15;57.16;100963.78;4993653;28;96777;-27
2023/07/03 03:16:18;;;;;;;2.00;0.75;;;;;;;17.16;57.90;100962.78;4993467;28;97980;-27
2023/07/03 03:18:43;;;;;;;2.40;0.75;;;;;;;17.13;56.73;100960.31;4993829;28;97734;-27
2023/07/03 03:21:09;;;;;;;0.95;0.22;;;;;;;17.15;57.36;100972.00;4993605;28;96696;-26
2023/07/03 03:23:34;;;;;;;3.55;0.70;;;;;;;17.15;57.26;100972.84;4993340;28;96805;-27
2023/07/03 03:25:59;;;;;;;2.25;0.40;;;;;;;17.16;57.14;100966.41;4992829;28;100575;-26
2023/07/03 03:28:25;;;;;;;2.40;0.63;;;;;;;17.11;57.63;100971.41;4993089;28;99163;-27
2023/07/03 03:30:50;;;;;;;1.70;0.60;;;;;;;17.10;57.25;100969.66;4993450;28;96599;-27
2023/07/03 03:33:15;;;;;;;1.35;0.57;;;;;;;17.07;56.25;100966.34;4993207;28;96869;-27
2023/07/03 03:35:41;;;;;;;5.57;0.73;;;;;;;17.04;56.85;100967.47;4993147;28;98118;-27
2023/07/03 03:38:06;;;;;;;1.80;0.60;;;;;;;17.03;55.74;100981.28;4990559;28;101219;-27
2023/07/03 03:40:32;;;;;;;1.10;0.65;;;;;;;17.05;56.24;100979.28;4993005;28;96670;-27
2023/07/03 03:42:57;;;;;;;3.70;0.57;;;;;;;17.01;56.27;100973.19;4993345;28;96852;-27
2023/07/03 03:45:24;;;;;;;3.00;0.73;;;;;;;17.02;55.36;100979.53;4992800;28;99903;-28
2023/07/03 03:47:51;;;;;;;2.45;0.43;;;;;;;16.98;55.74;100976.22;4992896;28;98024;-26
2023/07/03 03:50:16;;;;;;;4.55;0.88;;;;;;;17.00;55.99;100978.81;4991255;28;97066;-26
2023/07/03 03:52:42;;;;;;;0.88;0.30;;;;;;;16.99;55.71;100977.94;4992734;28;96843;-26
2023/07/03 03:55:07;;;;;;;1.10;0.57;;;;;;;17.01;56.14;100986.88;4992992;28;97921;-28
2023/07/03 03:57:33;;;;;;;2.60;0.80;;;;;;;16.96;56.18;100970.84;4993091;28;97207;-27
2023/07/03 03:59:58;;;;;;;1.02;0.30;;;;;;;16.97;55.81;100978.09;4992963;28;96728;-26
2023/07/03 04:02:23;;;;;;;3.78;0.90;;;;;;;16.95;55.18;100982.81;4992748;28;96820;-28
2023/07/03 04:04:49;;;;;;;3.25;0.82;;;;;;;16.92;55.55;100974.88;4992827;28;97883;-27
2023/07/03 04:07:14;;;;;;;2.78;0.63;;;;;;;16.90;56.03;100976.88;4992707;28;97818;-27
2023/07/03 04:09:39;;;;;;;3.03;0.65;;;;;;;16.89;55.94;100977.84;4993058;28;96616;-27
2023/07/03 04:12:05;;;;;;;3.17;0.43;;;;;;;16.92;56.37;100983.09;4992876;28;96644;-26
2023/07/03 04:14:31;;;;;;;2.60;0.57;;;;;;;16.94;56.06;100981.06;4990510;28;102484;-27
2023/07/03 04:16:57;;;;;;;2.75;0.88;;;;;;;16.87;56.33;100974.38;4992548;28;96922;-29
2023/07/03 04:19:23;;;;;;;4.50;0.70;;;;;;;16.91;56.30;100988.69;4991291;28;96712;-27
2023/07/03 04:21:48;;;;;;;3.97;0.55;;;;;;;16.89;56.48;100990.69;4991011;28;96879;-27
2023/07/03 04:24:13;;;;;;;2.50;0.93;;;;;;;16.90;56.05;100985.09;4992329;28;98878;-26
2023/07/03 04:26:40;;;;;;;4.60;0.70;;;;;;;16.86;55.85;100989.06;4992345;28;98698;-26
2023/07/03 04:29:05;;;;;;;5.43;0.70;;;;;;;16.87;55.96;100996.28;4992406;28;96713;-28
2023/07/03 04:31:31;;;;;;;0.98;0.52;;;;;;;16.88;56.38;100991.69;4992955;28;97072;-27
2023/07/03 04:33:56;;;;;;;2.03;0.73;;;;;;;16.84;56.15;100991.06;4992379;28;97998;-27
2023/07/03 04:36:22;;;;;;;3.08;0.70;;;;;;;16.79;56.34;100987.00;4992073;28;97740;-27
2023/07/03 04:38:47;;;;;;;5.25;0.75;;;;;;;16.77;56.38;100985.22;4991485;28;96637;-27
2023/07/03 04:41:14;;;;;;;5.05;0.80;;;;;;;16.79;56.81;100982.41;4992440;28;96785;-26
2023/07/03 04:43:44;;;;;;;6.10;1.13;;;;;;;16.81;56.45;100990.47;4990588;28;100969;-27
2023/07/03 04:46:11;;;;;;;1.35;0.57;;;;;;;16.84;56.54;100995.69;4990350;28;101551;-27
2023/07/03 04:48:37;;;;;;;1.60;0.68;;;;;;;16.81;56.58;100988.59;4990750;28;96576;-27
2023/07/03 04:51:03;;;;;;;2.17;0.70;;;;;;;16.83;56.19;100994.81;4992101;28;96822;-27
2023/07/03 04:53:31;;;;;;;6.28;0.68;;;;;;;16.75;56.47;100980.88;4990631;28;101645;-27
2023/07/03 04:55:57;;;;;;;5.65;1.05;;;;;;;16.87;56.69;100999.00;4990815;28;100796;-27
2023/07/03 04:58:22;;;;;;;4.93;0.55;;;;;;;16.81;56.78;100994.06;4990763;28;96832;-27
2023/07/03 05:00:48;;;;;;;0.82;0.40;;;;;;;16.87;56.63;101000.88;4992107;28;96770;-26
2023/07/03 05:03:14;;;;;;;4.38;0.43;;;;;;;16.86;56.74;100996.44;4991337;28;99776;-26
2023/07/03 05:05:39;;;;;;;3.83;0.73;;;;;;;16.84;56.15;100995.69;4991569;28;97736;-28
2023/07/03 05:08:04;;;;;;;1.30;0.63;;;;;;;16.84;56.60;100995.69;4991857;28;99331;-26
2023/07/03 05:10:30;;;;;;;4.25;0.70;;;;;;;16.85;56.55;100998.31;4991784;28;96894;-27
2023/07/03 05:12:55;;;;;;;3.60;1.00;;;;;;;16.89;56.93;101007.09;4991562;28;99335;-27
2023/07/03 05:15:22;;;;;;;1.83;0.68;;;;;;;16.88;57.12;101003.50;4991873;28;97327;-26
2023/07/03 05:17:57;;;;;;;3.03;0.70;;;;;;;16.88;56.93;101008.09;4990699;28;96571;-27
2023/07/03 05:20:25;;;;;;;5.18;0.90;;;;;;;16.86;57.03;101010.97;4992097;28;96653;-26
2023/07/03 05:22:51;;;;;;;2.95;0.70;;;;;;;16.86;57.11;101007.38;4990254;28;100986;-27
2023/07/03 05:25:17;;;;;;;4.72;0.90;;;;;;;16.88;57.59;101013.59;4990255;28;101748;-27
2023/07/03 05:27:43;;;;;;;1.95;0.82;;;;;;;16.86;57.41;101010.97;4989874;28;97535;-26
2023/07/03 05:30:09;;;;;;;0.93;0.43;;;;;;;16.95;57.38;101026.59;4991413;28;96741;-27
2023/07/03 05:32:35;;;;;;;1.90;0.75;;;;;;;16.91;57.59;101014.16;4991202;28;100204;-26
2023/07/03 05:35:03;;;;;;;4.93;1.05;;;;;;;17.05;57.80;101039.50;4989656;28;101130;-27
2023/07/03 05:37:29;;;;;;;2.80;0.40;;;;;;;17.07;57.68;101032.03;4989739;28;96844;-27
2023/07/03 05:39:55;;;;;;;1.98;0.45;;;;;;;17.10;57.79;101037.22;4991478;28;96759;-27
2023/07/03 05:42:21;;;;;;;3.85;0.70;;;;;;;17.07;57.63;101024.69;4989961;28;101048;-27
2023/07/03 05:44:47;;;;;;;8.30;1.48;;;;;;;17.06;56.99;101022.06;4990413;28;100854;-26
2023/07/03 05:47:13;;;;;;;1.45;0.63;;;;;;;17.08;57.13;101020.94;4989921;28;96737;-27
2023/07/03 05:49:39;;;;;;;3.63;0.95;;;;;;;17.08;57.08;101015.44;4989901;28;96826;-26
2023/07/03 05:52:05;;;;;;;2.03;0.50;;;;;;;17.11;57.17;101019.78;4989315;28;101055;-27
2023/07/03 05:54:31;;;;;;;3.20;0.80;;;;;;;17.17;56.64;101024.75;4991151;28;99099;-27
2023/07/03 05:57:02;;;;;;;1.65;0.65;;;;;;;17.18;56.80;101019.16;4994133;28;97023;-27
2023/07/03 05:59:28;;;;;;;4.28;0.70;;;;;;;17.19;56.52;101023.63;4993407;28;96707;-27
2023/07/03 06:01:55;;;;;;;1.00;0.50;;;;;;;17.20;56.54;101025.34;4994464;28;98907;-26
2023/07/03 06:04:22;;;;;;;2.28;0.73;;;;;;;17.23;56.53;101037.03;4993147;28;101349;-27
2023/07/03 06:06:49;;;;;;;3.28;0.90;;;;;;;17.13;56.34;101026.88;4993192;28;96634;-27
2023/07/03 06:09:14;;;;;;;4.25;0.88;;;;;;;17.17;56.70;101036.56;4993657;28;96843;-27
2023/07/03 06:11:39;;;;;;;3.25;0.80;;;;;;;17.15;56.43;101024.88;4994563;28;97897;-27
2023/07/03 06:14:12;;;;;;;3.33;0.80;;;;;;;17.23;55.97;101028.81;4994362;28;97785;-27
2023/07/03 06:16:38;;;;;;;3.35;0.70;;;;;;;17.27;56.42;101027.56;4993044;28;97201;-27
2023/07/03 06:19:04;;;;;;;1.92;0.85;;;;;;;17.32;56.26;101028.88;4994599;28;96799;-26
2023/07/03 06:21:30;;;;;;;3.15;0.60;;;;;;;17.45;56.13;101031.44;4992834;28;101091;-27
2023/07/03 06:23:55;;;;;;;4.45;0.70;;;;;;;17.62;55.36;101032.69;4994391;28;97794;-26
2023/07/03 06:26:20;;;;;;;3.08;0.68;;;;;;;17.62;55.74;101032.69;4994566;28;96435;-27
2023/07/03 06:28:46;;;;;;;5.70;0.88;;;;;;;17.59;56.05;101027.44;4994244;28;96861;-27
2023/07/03 06:31:11;;;;;;;1.48;0.60;;;;;;;17.60;56.48;101030.06;4994249;28;97439;-27
2023/07/03 06:33:36;;;;;;;3.30;0.75;;;;;;;17.52;56.71;101027.16;4994363;28;99267;-26
2023/07/03 06:36:02;;;;;;;4.20;1.30;;;;;;;17.51;56.50;101030.88;4994086;28;96809;-26
2023/07/03 06:38:27;;;;;;;2.78;0.73;;;;;;;17.48;56.64;101043.97;4993976;28;96814;-27
2023/07/03 06:40:59;;;;;;;3.83;0.90;;;;;;;17.45;56.36;101036.91;4993230;28;111837;-27
2023/07/03 06:43:25;;;;;;;2.60;0.73;;;;;;;17.45;56.62;101044.22;4993945;28;97923;-27
2023/07/03 06:45:50;;;;;;;4.30;0.63;;;;;;;17.48;56.78;101052.19;4994052;28;96682;-27
2023/07/03 06:48:16;;;;;;;2.90;0.85;;;;;;;17.43;56.60;101035.31;4994177;28;96775;-26
2023/07/03 06:50:41;;;;;;;3.92;0.90;;;;;;;17.51;56.83;101046.44;4994096;28;97374;-26
2023/07/03 06:53:06;;;;;;;3.30;1.30;;;;;;;17.54;56.57;101040.69;4993611;28;99205;-27
2023/07/03 06:55:32;;;;;;;1.02;0.68;;;;;;;17.78;56.28;101043.13;4993936;28;96540;-27
2023/07/03 06:57:58;;;;;;;2.65;0.80;;;;;;;18.04;55.97;101049.06;4994101;28;96852;-26
2023/07/03 07:00:23;;;;;;;2.67;0.98;;;;;;;17.94;56.47;101029.81;4993574;28;99338;-27
2023/07/03 07:02:49;;;;;;;3.08;0.88;;;;;;;18.00;56.47;101043.00;4993756;28;97790;-27
2023/07/03 07:05:14;;;;;;;4.55;0.80;;;;;;;18.07;56.62;101042.41;4993417;28;96489;-26
2023/07/03 07:07:39;;;;;;;6.57;1.40;;;;;;;18.06;56.92;101040.69;4993230;28;96857;-27
2023/07/03 07:10:05;;;;;;;2.72;0.63;;;;;;;17.96;57.06;101036.03;4993572;28;97946;-26
2023/07/03 07:12:31;;;;;;;3.20;1.23;;;;;;;17.93;56.98;101046.44;4993275;28;99140;-27
2023/07/03 07:14:56;;;;;;;6.55;1.08;;;;;;;17.81;57.77;101043.78;4993698;28;96632;-26
2023/07/03 07:17:21;;;;;;;6.18;1.13;;;;;;;17.77;57.36;101052.38;4992232;28;96920;-27
2023/07/03 07:19:47;;;;;;;3.90;1.17;;;;;;;17.75;57.73;101054.38;4993494;28;97475;-27
2023/07/03 07:22:12;;;;;;;3.95;1.10;;;;;;;17.74;58.04;101048.03;4993926;28;97836;-27
2023/07/03 07:24:38;;;;;;;3.75;1.02;;;;;;;17.70;57.36;101040.22;4992011;28;96561;-27
2023/07/03 07:27:04;;;;;;;4.90;0.90;;;;;;;17.76;57.67;101051.50;4993543;28;96888;-27
2023/07/03 07:29:30;;;;;;;6.82;1.20;;;;;;;18.04;56.53;101046.31;4991374;28;101395;-26
2023/07/03 07:31:57;;;;;;;3.15;0.70;;;;;;;18.28;55.61;101051.44;4993232;28;98174;-27
2023/07/03 07:34:23;;;;;;;6.95;0.88;;;;;;;18.43;54.73;101062.91;4991606;28;96835;-27
2023/07/03 07:36:49;;;;;;;3.08;0.63;;;;;;;18.46;54.89;101060.75;4991205;28;96926;-26
2023/07/03 07:39:14;;;;;;;2.47;1.02;;;;;;;18.42;54.41;101050.19;4993439;28;97395;-27
2023/07/03 07:41:40;;;;;;;1.13;0.90;;;;;;;18.53;55.29;101058.31;4992939;28;99756;-27
2023/07/03 07:44:05;;;;;;;3.03;0.80;;;;;;;18.49;53.83;101051.34;4993185;28;96557;-27
2023/07/03 07:46:32;;;;;;;5.28;0.68;;;;;;;18.53;54.11;101065.69;4991996;28;96844;-28
2023/07/03 07:48:59;;;;;;;2.25;0.70;;;;;;;18.46;54.25;101068.09;4991464;28;101190;-27
2023/07/03 07:51:26;;;;;;;5.20;0.85;;;;;;;18.42;53.45;101059.31;4991250;28;101315;-26
2023/07/03 07:53:52;;;;;;;1.85;0.68;;;;;;;18.44;53.42;101070.97;4991286;28;97110;-27
2023/07/03 07:56:18;;;;;;;2.67;0.80;;;;;;;18.50;53.97;101058.59;4991288;28;96685;-26
2023/07/03 07:58:44;;;;;;;1.33;0.70;;;;;;;18.75;53.75;101072.78;4991275;28;100866;-28
2023/07/03 08:01:14;;;;;;;6.40;1.02;;;;;;;18.70;53.99;101075.09;4992840;28;97763;-26
2023/07/03 08:03:40;;;;;;;2.92;0.88;;;;;;;18.58;53.99;101072.47;4993060;28;96570;-27
2023/07/03 08:06:06;;;;;;;2.70;0.68;;;;;;;18.57;54.02;101073.50;4991460;28;96884;-28
2023/07/03 08:08:32;;;;;;;2.30;0.93;;;;;;;18.54;54.00;101072.88;4992533;28;99441;-26
2023/07/03 08:11:01;;;;;;;2.78;0.95;;;;;;;18.57;54.44;101078.97;4991296;28;99119;-27
2023/07/03 08:13:28;;;;;;;3.67;0.77;;;;;;;18.52;53.65;101073.06;4991447;28;96867;-26
2023/07/03 08:15:54;;;;;;;3.50;0.90;;;;;;;18.50;54.21;101074.19;4991217;28;97910;-27
2023/07/03 08:18:21;;;;;;;4.60;1.27;;;;;;;18.49;54.23;101073.31;4991860;28;99490;-28
2023/07/03 08:20:46;;;;;;;3.10;0.65;;;;;;;18.65;54.18;101072.78;4990003;28;100857;-26
2023/07/03 08:23:12;;;;;;;4.47;0.95;;;;;;;18.87;54.09;101082.66;4992772;28;96642;-27
2023/07/03 08:25:40;;;;;;;3.60;0.82;;;;;;;18.77;53.07;101079.03;4992518;28;96853;-26
2023/07/03 08:28:05;;;;;;;1.70;0.63;;;;;;;18.62;52.45;101084.91;4991018;28;101247;-26
2023/07/03 08:30:31;;;;;;;2.55;0.77;;;;;;;19.04;53.41;101084.72;4992374;28;97872;-28
2023/07/03 08:32:56;;;;;;;6.90;0.98;;;;;;;19.06;53.10;101079.91;4992280;28;96629;-26
2023/07/03 08:35:22;;;;;;;3.65;0.95;;;;;;;19.03;53.64;101076.63;4992672;28;96801;-27
2023/07/03 08:37:48;;;;;;;2.25;0.73;;;;;;;19.06;52.43;101084.56;4990443;28;101144;-27
2023/07/03 08:40:18;;;;;;;1.85;0.50;;;;;;;19.02;53.08;101070.25;4991841;28;97282;-26
2023/07/03 08:42:55;;;;;;;4.25;1.05;;;;;;;18.98;52.82;101078.94;4991817;28;96466;-27
2023/07/03 08:45:25;;;;;;;3.65;0.77;;;;;;;19.37;52.90;101068.78;4992203;28;96783;-27
2023/07/03 08:47:54;;;;;;;3.63;0.93;;;;;;;19.86;51.77;101068.72;4990648;28;101568;-27
2023/07/03 08:50:23;;;;;;;3.50;0.82;;;;;;;19.87;50.92;101076.81;4991794;28;97446;-32
2023/07/03 08:52:56;;;;;;;2.35;0.80;;;;;;;19.69;51.37;101071.22;4990674;28;96702;-27
2023/07/03 08:55:27;;;;;;;3.13;0.47;;;;;;;19.61;50.77;101082.03;4990836;28;96608;-27
2023/07/03 08:57:52;;;;;;;3.55;0.63;;;;;;;19.49;52.07;101075.00;4990590;28;101054;-27
2023/07/03 09:00:19;;;;;;;6.20;0.93;;;;;;;19.35;51.72;101076.28;4992161;28;99734;-26
2023/07/03 09:03:05;;;;;;;1.95;0.70;;;;;;;19.25;51.86;101081.81;4990537;28;97444;-27
2023/07/03 09:05:36;;;;;;;5.85;1.00;;;;;;;19.12;52.56;101091.38;4990621;28;96770;-26
2023/07/03 09:08:07;;;;;;;2.05;0.85;;;;;;;18.98;51.93;101088.03;4991312;28;97451;-27
2023/07/03 09:10:35;;;;;;;1.08;0.68;;;;;;;18.91;52.71;101083.25;4974303;28;100865;-27
2023/07/03 09:13:08;;;;;;;6.03;1.15;;;;;;;18.75;52.26;101092.84;4991993;28;96638;-28
2023/07/03 09:15:41;;;;;;;4.65;1.27;;;;;;;18.68;52.61;101087.06;4990439;28;96838;-26
2023/07/03 09:18:36;;;;;;;5.40;0.85;;;;;;;18.86;53.10;101102.91;4990316;28;101355;-27
2023/07/03 09:21:01;;;;;;;4.28;0.93;;;;;;;19.21;52.52;101091.38;4990983;28;97993;-27
2023/07/03 09:23:31;;;;;;;4.50;0.65;;;;;;;19.49;52.07;101091.47;4991894;28;96516;-26
2023/07/03 09:26:11;;;;;;;4.82;0.73;;;;;;;19.60;51.61;101098.72;4990639;28;96730;-27
2023/07/03 09:28:39;;;;;;;2.17;0.60;;;;;;;19.43;52.24;101087.44;4991388;28;99356;-26
2023/07/03 09:31:05;;;;;;;3.83;0.88;;;;;;;19.41;52.84;101089.47;4991404;28;101212;-26
2023/07/03 09:33:31;;;;;;;5.40;1.35;;;;;;;19.31;52.12;101094.09;4994842;28;96442;-27
2023/07/03 09:36:00;;;;;;;3.05;0.77;;;;;;;19.19;52.74;101087.03;4993481;28;97173;-27
2023/07/03 09:38:26;;;;;;;10.52;1.20;;;;;;;19.07;52.21;101091.81;4992433;28;101260;-26
2023/07/03 09:40:55;;;;;;;3.15;0.77;;;;;;;18.97;52.78;101100.00;4995105;28;97754;-27
2023/07/03 09:43:26;;;;;;;2.92;0.80;;;;;;;18.92;53.41;101091.31;4995026;28;96845;-26
2023/07/03 09:46:17;;;;;;;3.23;0.83;;;;;;;18.86;53.37;101098.25;4993643;28;96944;-27
2023/07/03 09:48:42;;;;;;;3.10;0.83;;;;;;;18.77;53.64;101104.59;4993370;28;98094;-28
2023/07/03 09:51:29;;;;;;;2.92;0.90;;;;;;;18.73;53.57;101115.97;4995043;28;97479;-27
2023/07/03 09:53:57;;;;;;;3.45;1.10;;;;;;;18.63;54.31;101119.56;4993403;28;98739;-27
2023/07/03 09:56:28;;;;;;;2.55;0.77;;;;;;;18.54;54.57;101108.56;4993380;28;97011;-26
2023/07/03 09:58:59;;;;;;;1.58;0.63;;;;;;;18.39;54.13;101103.44;4992902;28;100820;-27
2023/07/03 10:01:29;;;;;;;4.05;1.02;;;;;;;18.33;54.69;101116.84;4993090;28;101276;-27
2023/07/03 10:04:03;;;;;;;1.42;0.68;;;;;;;18.29;55.22;101107.19;4993473;28;97356;-26
2023/07/03 10:06:28;;;;;;;5.90;1.17;;;;;;;18.48;55.10;101122.84;4993394;28;96707;-28
2023/07/03 10:09:00;;;;;;;3.00;0.60;;;;;;;18.61;54.67;101120.69;4994338;28;104340;-27
2023/07/03 10:11:53;;;;;;;4.80;1.08;;;;;;;18.63;54.75;101121.44;4993103;28;101121;-26
2023/07/03 10:14:28;;;;;;;2.95;0.82;;;;;;;18.57;53.81;101125.63;4995201;28;96552;-27
2023/07/03 10:16:54;;;;;;;2.58;0.50;;;;;;;18.53;54.15;101142.50;4995131;28;96731;-27
2023/07/03 10:19:21;;;;;;;4.57;0.68;;;;;;;18.44;53.42;101146.94;4992968;28;101321;-26
2023/07/03 10:21:47;;;;;;;4.13;0.57;;;;;;;18.38;52.93;101153.84;4992844;28;101224;-26
2023/07/03 10:24:14;;;;;;;1.67;0.52;;;;;;;18.33;53.67;101142.41;4992501;28;97180;-27
2023/07/03 10:26:47;;;;;;;1.65;0.80;;;;;;;18.36;53.94;101155.84;4993118;28;96829;-27
2023/07/03 10:29:38;;;;;;;3.47;1.02;;;;;;;18.34;54.34;101168.84;4992785;28;101224;-26
2023/07/03 10:32:11;;;;;;;3.08;0.90;;;;;;;18.32;54.75;101148.91;4992700;28;101092;-28
2023/07/03 10:34:45;;;;;;;2.35;0.88;;;;;;;18.39;55.27;101154.72;4994167;28;96640;-27
2023/07/03 10:37:13;;;;;;;4.57;1.00;;;;;;;18.28;55.68;101146.56;4992201;28;96782;-26
2023/07/03 10:39:50;;;;;;;2.00;0.95;;;;;;;18.25;56.32;101143.09;4992455;28;101345;-27
2023/07/03 10:42:34;;;;;;;5.43;1.25;;;;;;;18.29;56.22;101162.91;4992047;28;101043;-26
2023/07/03 10:45:04;;;;;;;1.65;0.70;;;;;;;18.27;56.29;101148.44;4992833;28;96731;-27
2023/07/03 10:47:47;;;;;;;4.88;1.20;;;;;;;18.28;55.67;101150.16;4992636;28;96866;-26
2023/07/03 10:50:14;;;;;;;3.00;0.77;;;;;;;18.68;54.96;101149.31;4991897;28;99609;-27
2023/07/03 10:52:59;;;;;;;2.75;0.68;;;;;;;18.85;55.09;101142.31;4992481;28;101228;-27
2023/07/03 10:55:31;;;;;;;4.78;0.95;;;;;;;18.86;53.38;101144.94;4993984;28;96621;-27
2023/07/03 10:58:09;;;;;;;6.28;0.80;;;;;;;18.74;54.01;101134.19;4992882;28;96814;-26
2023/07/03 11:00:46;;;;;;;5.95;0.63;;;;;;;19.05;53.97;101137.75;4993867;28;98019;-28
2023/07/03 11:03:27;;;;;;;2.65;0.77;;;;;;;19.47;53.53;101140.22;4993544;28;99402;-26
2023/07/03 11:06:01;;;;;;;1.23;0.47;;;;;;;19.49;51.28;101135.44;4993611;28;96698;-27
2023/07/03 11:08:35;;;;;;;2.15;0.70;;;;;;;19.39;52.46;101135.44;4992880;28;96813;-27
2023/07/03 11:11:12;;;;;;;1.75;0.73;;;;;;;19.84;51.02;101112.00;4993637;28;97775;-26
2023/07/03 11:14:04;;;;;;;2.80;0.68;;;;;;;20.42;49.55;101147.53;4993770;28;97979;-26
2023/07/03 11:16:43;;;;;;;2.90;0.70;;;;;;;20.33;49.82;101130.09;4991959;28;96887;-26
2023/07/03 11:19:44;;;;;;;2.72;0.50;;;;;;;20.08;47.38;101137.09;4992210;28;97150;-26
2023/07/03 11:22:18;;;;;;;4.13;0.93;;;;;;;19.90;48.52;101139.78;4991611;28;98171;-27
2023/07/03 11:25:07;;;;;;;1.27;0.32;;;;;;;19.71;47.68;101153.53;4991717;28;100917;-27
2023/07/03 11:27:47;;;;;;;3.45;0.70;;;;;;;19.53;48.44;101153.38;4992210;28;96580;-27
2023/07/03 11:30:14;;;;;;;1.98;0.70;;;;;;;19.44;49.17;101155.09;4993570;28;96631;-29